sensor_id;sensor_type;location;lat;lon;timestamp;P1;P2;P0
47711;PMS7003;57457;51.634;5.886;2023-02-28T00:09:45;;;
47711;PMS7003;57457;51.634;5.886;2023-02-28T00:22:07;;;
47711;PMS7003;57457;51.634;5.886;2023-02-28T00:34:29;;;
47711;PMS7003;57457;51.634;5.886;2023-02-28T00:46:52;;;
47711;PMS7003;57457;51.634;5.886;2023-02-28T00:59:14;;;
47711;PMS7003;57457;51.634;5.886;2023-02-28T01:11:36;;;
47711;PMS7003;57457;51.634;5.886;2023-02-28T01:23:58;;;
47711;PMS7003;57457;51.634;5.886;2023-02-28T01:36:20;;;
47711;PMS7003;57457;51.634;5.886;2023-02-28T01:48:43;;;
47711;PMS7003;57457;51.634;5.886;2023-02-28T02:01:05;;;
47711;PMS7003;57457;51.634;5.886;2023-02-28T02:13:27;;;
47711;PMS7003;57457;51.634;5.886;2023-02-28T02:25:49;;;
47711;PMS7003;57457;51.634;5.886;2023-02-28T02:38:11;;;
47711;PMS7003;57457;51.634;5.886;2023-02-28T02:51:01;16.33;14.29;6.55
47711;PMS7003;57457;51.634;5.886;2023-02-28T03:04:20;15.25;14.18;6.33
47711;PMS7003;57457;51.634;5.886;2023-02-28T03:17:40;14.29;13.31;6.11
47711;PMS7003;57457;51.634;5.886;2023-02-28T03:31:00;16.93;13.2;5.9
47711;PMS7003;57457;51.634;5.886;2023-02-28T03:44:19;12.61;11.45;5.57
47711;PMS7003;57457;51.634;5.886;2023-02-28T03:57:39;8.65;10.91;4.91
47711;PMS7003;57457;51.634;5.886;2023-02-28T04:10:58;9.61;11.13;5.02
47711;PMS7003;57457;51.634;5.886;2023-02-28T04:24:18;10.09;11.56;5.46
47711;PMS7003;57457;51.634;5.886;2023-02-28T04:37:38;11.89;11.24;5.9
47711;PMS7003;57457;51.634;5.886;2023-02-28T04:50:57;10.69;12.11;5.68
47711;PMS7003;57457;51.634;5.886;2023-02-28T05:04:17;10.21;11.24;5.68
47711;PMS7003;57457;51.634;5.886;2023-02-28T05:17:36;10.21;12.0;5.57
47711;PMS7003;57457;51.634;5.886;2023-02-28T05:30:56;11.89;11.56;5.24
47711;PMS7003;57457;51.634;5.886;2023-02-28T05:44:16;11.53;10.58;5.13
47711;PMS7003;57457;51.634;5.886;2023-02-28T05:57:35;10.33;12.11;5.02
47711;PMS7003;57457;51.634;5.886;2023-02-28T06:10:55;10.21;11.45;5.24
47711;PMS7003;57457;51.634;5.886;2023-02-28T06:24:14;9.49;10.91;5.46
47711;PMS7003;57457;51.634;5.886;2023-02-28T06:37:34;8.41;10.04;4.48
47711;PMS7003;57457;51.634;5.886;2023-02-28T06:50:54;9.73;9.49;5.13
47711;PMS7003;57457;51.634;5.886;2023-02-28T07:04:13;9.61;10.15;5.13
47711;PMS7003;57457;51.634;5.886;2023-02-28T07:17:33;8.29;10.8;5.02
47711;PMS7003;57457;51.634;5.886;2023-02-28T07:30:52;9.37;10.26;4.8
47711;PMS7003;57457;51.634;5.886;2023-02-28T07:44:12;8.65;8.51;4.04
47711;PMS7003;57457;51.634;5.886;2023-02-28T07:57:32;6.25;8.4;4.48
47711;PMS7003;57457;51.634;5.886;2023-02-28T08:10:51;4.93;7.42;3.5
47711;PMS7003;57457;51.634;5.886;2023-02-28T08:24:11;5.05;6.11;3.06
47711;PMS7003;57457;51.634;5.886;2023-02-28T08:37:30;3.48;6.33;3.39
47711;PMS7003;57457;51.634;5.886;2023-02-28T08:50:50;6.01;6.0;3.28
47711;PMS7003;57457;51.634;5.886;2023-02-28T09:04:10;3.36;6.22;3.5
47711;PMS7003;57457;51.634;5.886;2023-02-28T09:17:29;2.28;5.13;3.06
47711;PMS7003;57457;51.634;5.886;2023-02-28T09:30:49;1.92;5.02;2.84
47711;PMS7003;57457;51.634;5.886;2023-02-28T09:44:08;1.08;4.26;2.62
47711;PMS7003;57457;51.634;5.886;2023-02-28T09:57:28;0.6;3.82;2.19
47711;PMS7003;57457;51.634;5.886;2023-02-28T10:10:48;0.72;3.61;2.08
47711;PMS7003;57457;51.634;5.886;2023-02-28T10:24:07;0.84;3.93;2.52
47711;PMS7003;57457;51.634;5.886;2023-02-28T10:37:27;0.6;3.5;1.86
47711;PMS7003;57457;51.634;5.886;2023-02-28T10:50:46;0.72;3.82;2.41
47711;PMS7003;57457;51.634;5.886;2023-02-28T11:04:06;0.01;2.84;2.08
47711;PMS7003;57457;51.634;5.886;2023-02-28T11:17:26;0.36;3.06;2.3
47711;PMS7003;57457;51.634;5.886;2023-02-28T11:30:45;0.12;3.39;2.19
47711;PMS7003;57457;51.634;5.886;2023-02-28T11:57:24;0.84;4.04;2.19
47711;PMS7003;57457;51.634;5.886;2023-02-28T12:10:44;1.44;4.59;2.62
47711;PMS7003;57457;51.634;5.886;2023-02-28T12:24:04;2.76;3.61;2.3
47711;PMS7003;57457;51.634;5.886;2023-02-28T12:37:23;0.48;3.5;2.08
47711;PMS7003;57457;51.634;5.886;2023-02-28T13:04:02;2.52;4.37;2.19
47711;PMS7003;57457;51.634;5.886;2023-02-28T13:17:22;0.24;3.5;2.3
47711;PMS7003;57457;51.634;5.886;2023-02-28T13:30:42;1.56;4.7;2.52
47711;PMS7003;57457;51.634;5.886;2023-02-28T13:44:01;1.8;4.7;2.52
47711;PMS7003;57457;51.634;5.886;2023-02-28T13:57:21;1.56;4.7;2.62
47711;PMS7003;57457;51.634;5.886;2023-02-28T14:10:40;0.96;4.04;2.84
47711;PMS7003;57457;51.634;5.886;2023-02-28T14:24:00;2.16;5.02;2.95
47711;PMS7003;57457;51.634;5.886;2023-02-28T14:37:20;2.64;5.68;3.06
47711;PMS7003;57457;51.634;5.886;2023-02-28T14:50:39;3.12;5.9;3.28
47711;PMS7003;57457;51.634;5.886;2023-02-28T15:03:59;2.16;5.24;3.06
47711;PMS7003;57457;51.634;5.886;2023-02-28T15:17:19;3.0;5.79;3.17
47711;PMS7003;57457;51.634;5.886;2023-02-28T15:30:38;1.8;4.7;2.95
47711;PMS7003;57457;51.634;5.886;2023-02-28T15:43:58;3.85;5.68;3.39
47711;PMS7003;57457;51.634;5.886;2023-02-28T15:57:18;3.12;5.9;3.06
47711;PMS7003;57457;51.634;5.886;2023-02-28T16:10:37;4.93;5.46;3.28
47711;PMS7003;57457;51.634;5.886;2023-02-28T16:23:57;3.36;4.8;2.84
47711;PMS7003;57457;51.634;5.886;2023-02-28T16:37:16;2.16;5.02;2.84
47711;PMS7003;57457;51.634;5.886;2023-02-28T16:50:36;3.85;5.35;2.84
47711;PMS7003;57457;51.634;5.886;2023-02-28T17:03:56;2.28;5.35;3.17
47711;PMS7003;57457;51.634;5.886;2023-02-28T17:17:15;5.89;6.33;3.28
47711;PMS7003;57457;51.634;5.886;2023-02-28T17:30:35;6.37;6.99;3.06
47711;PMS7003;57457;51.634;5.886;2023-02-28T17:43:54;3.36;6.11;3.17
47711;PMS7003;57457;51.634;5.886;2023-02-28T17:57:14;4.93;7.09;3.5
47711;PMS7003;57457;51.634;5.886;2023-02-28T18:10:34;4.57;7.2;3.06
47711;PMS7003;57457;51.634;5.886;2023-02-28T18:23:53;6.97;7.64;3.93
47711;PMS7003;57457;51.634;5.886;2023-02-28T18:37:13;4.57;7.2;3.71
47711;PMS7003;57457;51.634;5.886;2023-02-28T18:50:32;4.45;6.77;2.95
47711;PMS7003;57457;51.634;5.886;2023-02-28T19:03:52;3.85;6.55;3.39
47711;PMS7003;57457;51.634;5.886;2023-02-28T19:17:12;6.37;8.4;3.28
47711;PMS7003;57457;51.634;5.886;2023-02-28T19:30:31;5.77;7.97;3.93
47711;PMS7003;57457;51.634;5.886;2023-02-28T19:43:51;10.93;9.6;4.59
47711;PMS7003;57457;51.634;5.886;2023-02-28T20:10:30;9.61;10.8;4.7
47711;PMS7003;57457;51.634;5.886;2023-02-28T20:23:50;11.53;10.36;5.02
47711;PMS7003;57457;51.634;5.886;2023-02-28T20:37:09;11.89;11.13;4.7
47711;PMS7003;57457;51.634;5.886;2023-02-28T20:50:29;11.77;12.0;5.46
47711;PMS7003;57457;51.634;5.886;2023-02-28T21:03:49;12.25;10.8;5.02
47711;PMS7003;57457;51.634;5.886;2023-02-28T21:17:08;14.05;11.24;5.13
47711;PMS7003;57457;51.634;5.886;2023-02-28T21:30:28;9.73;11.89;5.68
47711;PMS7003;57457;51.634;5.886;2023-02-28T21:43:47;9.97;12.22;5.46
47711;PMS7003;57457;51.634;5.886;2023-02-28T21:57:07;12.37;13.96;6.22
47711;PMS7003;57457;51.634;5.886;2023-02-28T22:10:27;16.21;13.42;5.24
47711;PMS7003;57457;51.634;5.886;2023-02-28T22:23:46;10.57;12.22;6.0
47711;PMS7003;57457;51.634;5.886;2023-02-28T22:37:06;9.85;11.78;6.0
47711;PMS7003;57457;51.634;5.886;2023-02-28T23:03:45;11.41;12.87;6.0
47711;PMS7003;57457;51.634;5.886;2023-02-28T23:17:05;11.65;13.2;6.0
47711;PMS7003;57457;51.634;5.886;2023-02-28T23:42:19;;;
47711;PMS7003;57457;51.634;5.886;2023-02-28T23:54:41;;;
